Time;durP1;ratioP1;P1;durP2;ratioP2;P2;SDS_P1;SDS_P2;PMS_P1;PMS_P2;Temp;Humidity;BMP_temperature;BMP_pressure;BME280_temperature;BME280_humidity;BME280_pressure;Samples;Min_cycle;Max_cycle;Signal;HPM_P1;HPM_P2
2022/05/08 00:00:18;;;;;;;12.67;11.47;;;;;;;13.19;75.94;99162.81;5025517;27;103859;-70
2022/05/08 00:02:46;;;;;;;11.97;10.87;;;;;;;13.32;75.19;99157.44;5030150;27;103408;-70
2022/05/08 00:05:14;;;;;;;11.50;10.43;;;;;;;13.30;75.23;99162.03;5030370;27;103218;-70
2022/05/08 00:07:44;;;;;;;11.60;10.60;;;;;;;13.20;75.07;99161.88;5037863;27;102692;-70
2022/05/08 00:10:12;;;;;;;10.60;9.70;;;;;;;13.45;74.63;99157.34;5034881;27;103956;-70
2022/05/08 00:12:40;;;;;;;8.53;7.83;;;;;;;13.66;73.51;99158.34;5029633;27;103408;-70
2022/05/08 00:15:11;;;;;;;11.30;10.30;;;;;;;13.53;73.48;99157.63;5023979;27;103205;-70
2022/05/08 00:17:39;;;;;;;9.47;8.73;;;;;;;13.54;74.01;99159.28;5030335;27;102956;-70
2022/05/08 00:20:09;;;;;;;10.80;9.90;;;;;;;13.62;73.45;99162.19;5017088;27;103631;-70
2022/05/08 00:22:44;;;;;;;11.50;10.50;;;;;;;13.45;73.24;99160.84;5017052;27;103446;-70
2022/05/08 00:25:13;;;;;;;12.68;11.40;;;;;;;13.01;74.97;99164.19;5028837;27;103178;-70
2022/05/08 00:27:41;;;;;;;13.10;12.00;;;;;;;12.49;78.03;99163.69;5030532;27;102706;-70
2022/05/08 00:30:10;;;;;;;13.27;12.17;;;;;;;12.34;79.30;99170.94;5029783;27;104324;-70
2022/05/08 00:32:38;;;;;;;13.80;12.70;;;;;;;11.68;82.39;99173.84;5028989;27;104651;-70
2022/05/08 00:35:08;;;;;;;11.83;10.87;;;;;;;12.01;82.22;99176.81;5028287;27;103328;-70
2022/05/08 00:37:36;;;;;;;15.10;13.75;;;;;;;12.21;81.59;99170.97;5019365;27;102795;-71
2022/05/08 00:40:07;;;;;;;8.25;7.65;;;;;;;12.90;78.31;99169.44;5028547;27;103918;-70
2022/05/08 00:42:35;;;;;;;10.77;9.90;;;;;;;13.05;76.97;99168.28;5027352;27;104470;-70
2022/05/08 00:45:04;;;;;;;8.90;8.30;;;;;;;13.17;75.81;99166.56;5029741;27;104855;-69
2022/05/08 00:47:32;;;;;;;9.13;8.40;;;;;;;13.27;74.81;99172.88;5027619;27;104274;-69
2022/05/08 00:50:01;;;;;;;10.40;9.53;;;;;;;13.18;74.56;99163.81;5028179;27;102686;-70
2022/05/08 00:52:30;;;;;;;10.57;9.70;;;;;;;13.11;74.69;99167.88;5032373;27;103422;-69
2022/05/08 00:55:00;;;;;;;13.98;12.88;;;;;;;12.13;79.08;99172.47;5030098;27;104530;-69
2022/05/08 00:57:30;;;;;;;11.85;10.85;;;;;;;12.57;77.62;99166.63;5029525;27;103940;-69
2022/05/08 01:00:03;;;;;;;12.00;11.00;;;;;;;12.72;77.44;99165.50;5026454;27;104459;-69
2022/05/08 01:02:32;;;;;;;14.23;13.13;;;;;;;12.41;79.25;99169.53;5022457;27;104203;-69
2022/05/08 01:05:00;;;;;;;13.07;11.98;;;;;;;12.69;78.38;99171.00;5020359;27;104498;-69
2022/05/08 01:07:32;;;;;;;11.60;10.70;;;;;;;12.91;77.19;99165.84;5029526;27;103414;-69
2022/05/08 01:10:00;;;;;;;12.65;11.63;;;;;;;12.83;76.99;99172.69;5031608;27;104345;-71
2022/05/08 01:12:33;;;;;;;11.95;11.05;;;;;;;12.87;77.06;99167.03;5027872;27;104059;-69
2022/05/08 01:15:10;;;;;;;9.38;8.68;;;;;;;13.00;76.71;99164.28;5026625;27;103204;-69
2022/05/08 01:17:38;;;;;;;9.40;8.80;;;;;;;13.13;75.61;99162.47;5026887;27;102735;-69
2022/05/08 01:20:07;;;;;;;8.87;8.17;;;;;;;13.21;74.79;99155.63;5028899;27;102842;-69
2022/05/08 01:22:37;;;;;;;8.60;8.00;;;;;;;13.25;74.91;99154.41;5027425;27;104229;-70
2022/05/08 01:25:07;;;;;;;10.20;9.40;;;;;;;13.15;75.39;99158.72;5016094;27;103605;-70
2022/05/08 01:27:34;;;;;;;10.55;9.75;;;;;;;13.14;75.62;99151.72;5026073;27;102793;-70
2022/05/08 01:30:02;;;;;;;10.02;9.23;;;;;;;13.11;75.67;99153.75;5018568;27;104236;-70
2022/05/08 01:32:31;;;;;;;11.70;10.80;;;;;;;13.07;75.57;99154.94;5020812;27;104328;-70
2022/05/08 01:34:59;;;;;;;10.32;9.57;;;;;;;13.11;75.24;99141.34;5025326;27;103184;-70
2022/05/08 01:37:27;;;;;;;8.60;8.00;;;;;;;13.20;74.39;99147.75;5022058;27;103060;-70
2022/05/08 01:39:57;;;;;;;12.57;11.47;;;;;;;13.03;74.66;99148.16;5028536;27;104168;-70
2022/05/08 01:42:27;;;;;;;12.32;11.32;;;;;;;12.68;78.00;99150.78;5021619;27;103591;-70
2022/05/08 01:44:55;;;;;;;11.93;11.03;;;;;;;12.82;76.25;99149.75;5027093;27;103386;-70
2022/05/08 01:50:09;;;;;;;8.80;8.20;;;;;;;13.03;75.32;99148.16;5028560;27;103969;-70
2022/05/08 01:52:39;;;;;;;11.83;10.73;;;;;;;12.91;74.61;99149.09;5023101;27;104892;-70
2022/05/08 01:55:09;;;;;;;11.63;10.73;;;;;;;12.78;75.44;99149.13;5031119;27;103467;-70
2022/05/08 01:57:37;;;;;;;8.63;8.00;;;;;;;12.97;74.92;99145.97;5023766;27;102999;-70
2022/05/08 02:00:06;;;;;;;10.30;9.60;;;;;;;12.90;75.07;99142.94;5027085;27;103173;-70
2022/05/08 02:02:43;;;;;;;10.53;9.73;;;;;;;12.89;74.53;99146.53;5026765;27;104487;-70
2022/05/08 02:05:11;;;;;;;14.13;12.93;;;;;;;12.06;78.33;99150.03;5025889;27;103189;-70
2022/05/08 02:07:39;;;;;;;12.20;11.30;;;;;;;12.19;78.69;99157.00;5028063;27;102699;-70
2022/05/08 02:10:09;;;;;;;11.70;10.80;;;;;;;12.43;77.37;99150.91;5028058;27;102695;-70
2022/05/08 02:12:39;;;;;;;11.38;10.43;;;;;;;12.54;76.57;99143.84;5026162;27;103865;-70
2022/05/08 02:15:08;;;;;;;13.50;12.45;;;;;;;11.99;78.95;99154.06;5029448;27;103233;-70
2022/05/08 02:17:37;;;;;;;12.73;11.73;;;;;;;12.10;78.97;99152.34;5026121;27;102631;-71
2022/05/08 02:20:07;;;;;;;15.90;14.57;;;;;;;11.28;82.48;99161.69;5031301;27;103719;-70
2022/05/08 02:22:35;;;;;;;14.85;13.55;;;;;;;11.03;85.10;99160.69;5025030;27;103252;-70
2022/05/08 02:25:04;;;;;;;15.18;13.95;;;;;;;11.09;85.19;99161.25;5028831;27;103233;-70
2022/05/08 02:27:39;;;;;;;12.68;11.68;;;;;;;11.71;82.82;99154.31;5028874;27;102729;-69
2022/05/08 02:30:08;;;;;;;11.67;10.77;;;;;;;11.96;80.46;99154.28;5029303;27;104022;-70
2022/05/08 02:32:36;;;;;;;12.45;11.45;;;;;;;11.90;79.85;99160.84;5026774;27;103564;-70
2022/05/08 02:35:06;;;;;;;13.15;12.15;;;;;;;11.77;81.08;99165.31;5030965;27;103762;-70
2022/05/08 02:37:34;;;;;;;12.80;11.80;;;;;;;11.63;81.48;99165.41;5028332;27;103020;-70
2022/05/08 02:40:02;;;;;;;12.63;11.63;;;;;;;11.55;83.38;99165.09;5030111;27;103684;-70
2022/05/08 02:42:30;;;;;;;9.18;8.48;;;;;;;11.98;80.90;99161.19;5027803;27;103262;-70
2022/05/08 02:45:00;;;;;;;9.40;8.70;;;;;;;12.21;79.00;99164.81;5027127;27;103320;-70
2022/05/08 02:47:27;;;;;;;9.67;8.97;;;;;;;12.33;77.26;99155.16;5026122;27;102681;-70
2022/05/08 02:49:55;;;;;;;11.13;10.23;;;;;;;12.31;76.09;99149.13;5027942;27;102740;-70
2022/05/08 02:52:23;;;;;;;11.00;10.00;;;;;;;12.14;76.80;99159.13;5019601;27;103732;-70
2022/05/08 02:54:51;;;;;;;14.83;13.63;;;;;;;10.94;81.42;99145.47;5026277;27;103204;-70
2022/05/08 03:00:09;;;;;;;11.45;10.52;;;;;;;11.41;82.22;99165.19;5028601;27;103619;-70
2022/05/08 03:02:38;;;;;;;15.18;14.00;;;;;;;10.94;83.14;99163.97;5027595;27;103276;-70
2022/05/08 03:05:07;;;;;;;12.55;11.55;;;;;;;11.02;85.49;99172.22;5026254;27;103151;-70
2022/05/08 03:07:35;;;;;;;11.35;10.55;;;;;;;11.52;82.58;99166.16;5026813;27;102789;-70
2022/05/08 03:10:04;;;;;;;11.20;10.30;;;;;;;11.80;80.80;99166.91;5029569;27;103894;-70
2022/05/08 03:12:32;;;;;;;12.50;11.45;;;;;;;11.77;78.37;99172.41;5027122;27;104147;-70
2022/05/08 03:15:00;;;;;;;9.73;8.97;;;;;;;11.85;78.74;99170.94;5028658;27;103264;-70
2022/05/08 03:17:29;;;;;;;10.82;9.90;;;;;;;11.81;77.46;99180.06;5020684;27;102653;-70
2022/05/08 03:19:57;;;;;;;11.70;10.70;;;;;;;11.59;79.10;99178.00;5027443;27;103843;-69
2022/05/08 03:22:25;;;;;;;12.15;11.20;;;;;;;11.53;78.53;99180.22;5028845;27;104308;-69
2022/05/08 03:24:53;;;;;;;11.43;10.53;;;;;;;11.59;78.69;99187.75;5015490;27;103247;-70
2022/05/08 03:27:21;;;;;;;10.70;9.80;;;;;;;11.65;78.16;99182.88;5026650;27;103758;-70
2022/05/08 03:29:51;;;;;;;11.13;10.13;;;;;;;11.71;78.52;99176.34;5030633;27;103797;-70
2022/05/08 03:32:19;;;;;;;12.77;11.70;;;;;;;11.59;77.79;99177.16;5024130;27;104276;-70
2022/05/08 03:34:49;;;;;;;10.18;9.45;;;;;;;11.73;77.97;99171.81;5025942;27;103511;-70
2022/05/08 03:37:16;;;;;;;11.15;10.25;;;;;;;11.63;78.07;99174.19;5026947;27;102681;-70
2022/05/08 03:39:44;;;;;;;10.45;9.65;;;;;;;11.69;78.55;99172.06;5025588;27;103866;-70
2022/05/08 03:42:13;;;;;;;12.10;11.10;;;;;;;11.70;78.24;99173.81;5026480;27;103676;-68
2022/05/08 03:44:41;;;;;;;13.02;11.93;;;;;;;11.42;79.46;99178.31;5028188;27;103360;-70
2022/05/08 03:47:09;;;;;;;11.25;10.35;;;;;;;11.64;79.26;99175.91;5027664;27;102918;-70
2022/05/08 03:49:38;;;;;;;10.98;10.18;;;;;;;11.74;77.98;99178.78;5028987;27;104040;-71
2022/05/08 03:52:09;;;;;;;10.60;9.90;;;;;;;11.77;77.97;99178.56;5028131;27;104336;-69
2022/05/08 03:54:37;;;;;;;11.80;10.90;;;;;;;11.62;79.08;99182.25;5022334;27;103674;-69
2022/05/08 03:57:06;;;;;;;8.95;8.32;;;;;;;11.71;78.77;99178.97;5027034;27;103027;-69
2022/05/08 03:59:34;;;;;;;8.80;8.10;;;;;;;11.87;77.36;99176.97;5030507;27;102751;-69
2022/05/08 04:02:02;;;;;;;9.50;8.80;;;;;;;11.91;76.85;99183.75;5031264;27;103951;-70
2022/05/08 04:04:32;;;;;;;12.00;11.00;;;;;;;11.56;76.53;99180.03;5030666;27;103278;-69
2022/05/08 04:07:00;;;;;;;10.63;9.80;;;;;;;11.53;78.24;99178.44;5030527;27;102696;-69
2022/05/08 04:09:29;;;;;;;11.75;10.77;;;;;;;11.52;77.41;99187.31;5029841;27;103735;-70
2022/05/08 04:11:57;;;;;;;16.57;15.27;;;;;;;10.14;84.70;99190.31;5031486;27;103171;-70
2022/05/08 04:14:25;;;;;;;16.47;15.13;;;;;;;9.93;87.34;99183.72;5031941;27;103229;-70
2022/05/08 04:16:55;;;;;;;15.68;14.38;;;;;;;9.90;88.36;99190.03;5031575;27;102514;-70
2022/05/08 04:19:23;;;;;;;18.27;16.77;;;;;;;9.58;91.91;99199.06;5033022;27;104737;-69
2022/05/08 04:24:16;;;;;;;17.37;16.07;;;;;;;9.74;90.50;99205.09;5020134;27;104104;-69
2022/05/08 04:24:41;;;;;;;18.23;16.83;;;;;;;9.54;92.79;99197.56;5030440;27;103234;-69
2022/05/08 04:27:10;;;;;;;18.15;16.75;;;;;;;9.71;91.32;99197.38;5032419;27;102547;-69
2022/05/08 04:29:38;;;;;;;17.05;15.75;;;;;;;9.77;90.74;99199.63;5030458;27;104053;-69
2022/05/08 04:32:08;;;;;;;18.77;17.15;;;;;;;9.51;91.82;99207.44;5022869;27;104017;-70
2022/05/08 04:34:36;;;;;;;17.52;16.13;;;;;;;9.78;90.97;99206.63;5028456;27;103239;-69
2022/05/08 04:37:05;;;;;;;16.08;14.77;;;;;;;10.25;89.92;99206.34;5021049;27;102977;-69
2022/05/08 04:39:33;;;;;;;14.38;13.25;;;;;;;10.54;89.01;99206.28;5030073;27;102812;-69
2022/05/08 04:42:02;;;;;;;12.83;11.93;;;;;;;10.78;87.01;99210.81;5028997;27;103210;-69
2022/05/08 04:44:30;;;;;;;16.42;15.02;;;;;;;10.36;87.82;99219.72;5029680;27;103179;-69
2022/05/08 04:47:00;;;;;;;17.20;15.80;;;;;;;10.26;89.97;99223.03;5035112;27;104206;-70
2022/05/08 04:49:29;;;;;;;14.40;13.30;;;;;;;10.66;88.41;99227.50;5028088;27;104039;-69
2022/05/08 04:51:57;;;;;;;17.10;15.70;;;;;;;10.57;86.92;99230.72;5030781;27;103292;-70
2022/05/08 04:54:24;;;;;;;11.00;10.20;;;;;;;11.15;86.35;99226.91;5028064;27;103310;-69
2022/05/08 04:56:52;;;;;;;9.25;8.55;;;;;;;11.50;83.62;99220.97;5028216;27;102704;-69
2022/05/08 04:59:22;;;;;;;8.35;7.75;;;;;;;11.69;81.67;99225.88;5031898;27;103683;-69
2022/05/08 05:01:50;;;;;;;10.50;9.65;;;;;;;11.81;80.53;99224.22;5030152;27;103837;-69
2022/05/08 05:04:21;;;;;;;10.73;9.88;;;;;;;11.85;79.19;99228.31;5028963;27;103236;-69
2022/05/08 05:06:49;;;;;;;13.10;12.00;;;;;;;11.64;78.35;99227.97;5027509;27;102547;-70
2022/05/08 05:09:16;;;;;;;11.80;10.80;;;;;;;11.74;79.01;99233.50;5028863;27;103781;-69
2022/05/08 05:11:44;;;;;;;8.80;8.10;;;;;;;11.92;78.16;99233.09;5027856;27;103300;-69
2022/05/08 05:14:14;;;;;;;9.57;8.87;;;;;;;12.07;77.40;99229.38;5025988;27;103336;-69
2022/05/08 05:16:43;;;;;;;11.63;10.73;;;;;;;11.95;78.00;99224.94;5031792;27;102647;-71
2022/05/08 05:19:11;;;;;;;9.48;8.77;;;;;;;12.14;77.64;99233.28;5031019;27;103369;-70
2022/05/08 05:21:39;;;;;;;9.90;9.20;;;;;;;12.30;77.12;99227.75;5037706;27;103547;-69
2022/05/08 05:24:07;;;;;;;11.23;10.43;;;;;;;12.13;77.89;99226.28;5035287;27;103892;-69
2022/05/08 05:26:35;;;;;;;10.48;9.63;;;;;;;12.26;77.21;99230.75;5035550;27;102689;-70
2022/05/08 05:29:05;;;;;;;11.80;10.93;;;;;;;12.18;77.61;99234.75;5035405;27;102682;-69
2022/05/08 05:31:33;;;;;;;11.55;10.65;;;;;;;12.29;77.31;99241.97;5039119;27;104143;-70
2022/05/08 05:34:03;;;;;;;15.07;13.88;;;;;;;11.94;79.67;99241.78;5030882;27;103197;-69
2022/05/08 05:36:30;;;;;;;12.43;11.43;;;;;;;12.17;79.91;99243.69;5031263;27;103087;-69
2022/05/08 05:38:58;;;;;;;10.25;9.45;;;;;;;12.52;78.72;99237.69;5031034;27;104525;-69
2022/05/08 05:41:26;;;;;;;9.10;8.50;;;;;;;12.51;78.41;99243.94;5013638;27;103319;-71
2022/05/08 05:43:58;;;;;;;13.70;12.70;;;;;;;12.45;79.33;99247.88;5034069;27;103475;-69
2022/05/08 05:49:19;;;;;;;10.82;10.02;;;;;;;12.85;78.52;99248.50;4933188;28;104231;-68
2022/05/08 05:51:47;;;;;;;11.27;10.48;;;;;;;12.90;78.04;99243.69;4999841;28;103536;-68
2022/05/08 05:54:16;;;;;;;11.27;10.38;;;;;;;12.92;77.36;99247.09;5002387;28;103372;-68
2022/05/08 05:56:46;;;;;;;12.23;11.32;;;;;;;12.90;77.77;99249.00;5006620;28;102651;-69
2022/05/08 05:59:14;;;;;;;9.93;9.13;;;;;;;13.03;77.46;99246.28;5001644;28;102737;-69
2022/05/08 06:02:02;;;;;;;13.75;12.75;;;;;;;12.69;80.69;99247.91;4978181;28;103246;-69
2022/05/08 06:04:31;;;;;;;12.38;11.45;;;;;;;12.99;79.77;99248.34;5006985;28;103187;-68
2022/05/08 06:06:59;;;;;;;11.82;10.93;;;;;;;13.11;79.95;99252.75;4995306;28;102703;-69
2022/05/08 06:09:27;;;;;;;11.15;10.35;;;;;;;13.27;79.24;99248.03;5002229;28;102690;-68
2022/05/08 06:11:55;;;;;;;11.05;10.15;;;;;;;13.44;78.13;99249.41;5003874;28;103451;-69
2022/05/08 06:14:23;;;;;;;11.18;10.40;;;;;;;13.57;77.63;99252.81;4983159;28;104108;-69
2022/05/08 06:16:51;;;;;;;11.32;10.43;;;;;;;13.65;77.01;99258.41;4980359;28;102600;-69
2022/05/08 06:19:19;;;;;;;10.95;10.15;;;;;;;13.77;76.30;99257.47;4999329;28;103151;-69
2022/05/08 06:21:53;;;;;;;11.87;10.97;;;;;;;13.84;76.30;99261.31;4996104;28;103323;-69
2022/05/08 06:24:21;;;;;;;12.20;11.30;;;;;;;13.87;76.26;99258.44;5005533;28;103472;-69
2022/05/08 06:26:49;;;;;;;15.83;14.60;;;;;;;13.59;76.99;99258.00;4998294;28;102886;-69
2022/05/08 06:29:19;;;;;;;13.57;12.57;;;;;;;13.89;76.54;99267.13;4986751;28;104484;-69
2022/05/08 06:31:50;;;;;;;15.77;14.47;;;;;;;13.63;77.39;99267.44;4997060;28;103530;-68
2022/05/08 06:34:18;;;;;;;13.63;12.63;;;;;;;13.76;77.66;99257.56;5003446;28;103214;-69
2022/05/08 06:36:46;;;;;;;14.30;13.30;;;;;;;14.02;77.00;99269.69;5004297;28;102645;-68
2022/05/08 06:39:15;;;;;;;14.30;13.17;;;;;;;14.21;76.99;99271.75;4984667;28;104062;-70
2022/05/08 06:41:43;;;;;;;13.88;12.80;;;;;;;14.34;76.16;99273.38;5004122;28;104218;-70
2022/05/08 06:44:13;;;;;;;16.23;15.02;;;;;;;14.31;76.24;99273.59;5006820;28;103245;-69
2022/05/08 06:46:41;;;;;;;13.30;12.30;;;;;;;14.55;76.12;99269.97;4984475;28;103105;-70
2022/05/08 06:49:09;;;;;;;16.27;15.03;;;;;;;14.37;76.71;99267.81;5005792;28;104051;-70
2022/05/08 06:51:39;;;;;;;15.55;14.32;;;;;;;14.56;75.75;99271.69;5010546;28;103083;-69
2022/05/08 06:54:07;;;;;;;14.05;13.05;;;;;;;14.61;76.20;99278.31;5004282;28;103243;-67
2022/05/08 06:56:36;;;;;;;14.48;13.48;;;;;;;14.69;76.32;99278.56;5000996;28;102732;-70
2022/05/08 07:01:50;;;;;;;14.60;13.45;;;;;;;15.09;75.43;99277.03;4991714;28;103331;-69
2022/05/08 07:04:18;;;;;;;17.38;16.08;;;;;;;14.61;77.45;99280.13;5002941;28;103284;-69
2022/05/08 07:06:47;;;;;;;13.48;12.40;;;;;;;15.10;76.13;99277.91;4986060;28;102808;-68
2022/05/08 07:09:15;;;;;;;14.73;13.63;;;;;;;15.55;74.99;99279.44;5009738;28;102607;-69
2022/05/08 07:11:47;;;;;;;14.43;13.32;;;;;;;15.91;72.78;99278.16;5003913;28;103320;-68
2022/05/08 07:14:16;;;;;;;16.67;15.40;;;;;;;15.49;74.94;99285.28;5006295;28;103292;-69
2022/05/08 07:16:44;;;;;;;17.07;15.77;;;;;;;15.19;75.71;99282.44;4998954;28;102691;-69
2022/05/08 07:19:12;;;;;;;18.80;17.27;;;;;;;15.30;75.60;99285.06;5002023;28;103515;-69
2022/05/08 07:21:40;;;;;;;18.02;16.52;;;;;;;15.28;76.34;99291.50;5002282;28;103226;-68
2022/05/08 07:24:09;;;;;;;19.60;18.10;;;;;;;14.19;78.90;99287.84;5003684;28;104678;-68
2022/05/08 07:26:37;;;;;;;16.45;15.15;;;;;;;15.09;76.83;99286.84;5004407;28;102671;-68
2022/05/08 07:29:07;;;;;;;15.98;14.77;;;;;;;15.48;76.96;99282.72;4982527;28;102700;-69
2022/05/08 07:31:34;;;;;;;14.68;13.57;;;;;;;15.97;73.85;99287.47;5006203;28;104039;-68
2022/05/08 07:36:48;;;;;;;18.05;16.75;;;;;;;15.58;75.96;99295.16;4991298;28;102675;-67
2022/05/08 07:39:16;;;;;;;15.25;14.15;;;;;;;16.01;75.06;99296.88;4983721;28;102897;-67
2022/05/08 07:41:44;;;;;;;14.27;13.18;;;;;;;16.35;73.80;99301.00;5000447;28;103801;-68
2022/05/08 07:44:13;;;;;;;15.20;14.10;;;;;;;16.69;72.17;99294.44;5004240;28;103625;-68
2022/05/08 07:46:41;;;;;;;14.10;13.00;;;;;;;16.72;72.41;99304.84;4987983;28;102690;-68
2022/05/08 07:49:10;;;;;;;14.48;13.38;;;;;;;16.93;69.89;99290.56;5004817;28;104482;-67
2022/05/08 07:51:38;;;;;;;13.10;12.05;;;;;;;17.50;67.60;99296.00;5019667;28;103365;-68
2022/05/08 07:54:06;;;;;;;14.00;12.90;;;;;;;17.70;68.95;99291.53;4984251;28;103251;-68
2022/05/08 07:56:35;;;;;;;15.30;14.10;;;;;;;17.69;69.21;99301.38;5005606;28;102673;-67
2022/05/08 07:59:06;;;;;;;16.52;15.15;;;;;;;17.07;69.37;99292.84;5008032;28;104542;-67
2022/05/08 08:01:35;;;;;;;14.75;13.65;;;;;;;17.53;68.39;99294.88;5004772;28;103265;-67
2022/05/08 08:04:18;;;;;;;14.23;13.10;;;;;;;17.79;68.05;99293.38;5006614;28;104060;-67
2022/05/08 08:06:46;;;;;;;16.00;14.77;;;;;;;17.43;69.42;99300.25;5004744;28;102748;-68
2022/05/08 08:09:14;;;;;;;14.77;13.73;;;;;;;17.78;68.08;99300.53;5009341;28;103588;-67
2022/05/08 08:11:42;;;;;;;16.50;15.20;;;;;;;17.61;69.04;99301.25;5006107;28;103969;-67
2022/05/08 08:14:10;;;;;;;14.52;13.52;;;;;;;17.44;70.41;99304.56;5003008;28;103250;-67
2022/05/08 08:17:00;;;;;;;16.10;14.90;;;;;;;17.29;69.37;99314.81;5006355;28;103085;-67
2022/05/08 08:19:29;;;;;;;14.98;13.88;;;;;;;17.27;70.11;99315.94;5003875;28;102883;-67
2022/05/08 08:21:59;;;;;;;15.73;14.63;;;;;;;17.37;70.84;99314.97;5006313;28;103919;-68
2022/05/08 08:24:29;;;;;;;12.90;12.00;;;;;;;18.30;68.89;99317.91;4987567;28;103206;-68
2022/05/08 08:26:57;;;;;;;15.40;14.20;;;;;;;18.18;68.29;99305.69;5006812;28;102733;-67
2022/05/08 08:29:25;;;;;;;16.25;15.10;;;;;;;18.13;66.59;99316.00;5004325;28;102657;-68
2022/05/08 08:31:53;;;;;;;12.93;11.93;;;;;;;18.46;66.34;99312.81;4982039;28;104042;-67
2022/05/08 08:34:22;;;;;;;15.52;14.38;;;;;;;17.50;69.63;99312.03;4993195;28;103527;-67
2022/05/08 08:36:51;;;;;;;15.33;14.23;;;;;;;17.53;68.23;99319.78;5005911;28;102867;-68
2022/05/08 08:39:19;;;;;;;17.57;16.13;;;;;;;17.06;71.51;99323.22;5003932;28;102875;-68
2022/05/08 08:41:53;;;;;;;16.60;15.40;;;;;;;17.25;70.97;99316.09;5003779;28;103650;-68
2022/05/08 08:50:04;;;;;;;15.02;13.93;;;;;;;17.69;70.30;99317.41;4990933;28;102842;-67
2022/05/08 08:52:32;;;;;;;12.80;11.80;;;;;;;18.59;68.13;99314.31;5001557;27;103879;-67
2022/05/08 08:55:00;;;;;;;11.30;10.50;;;;;;;19.27;66.42;99318.34;4996067;28;103574;-68
2022/05/08 08:57:28;;;;;;;15.07;13.90;;;;;;;17.24;67.79;99324.22;5009178;27;102952;-68
2022/05/08 08:59:56;;;;;;;11.48;10.57;;;;;;;18.33;66.33;99311.44;5028979;27;104102;-68
2022/05/08 09:02:24;;;;;;;11.40;10.60;;;;;;;19.33;65.28;99312.41;5028128;27;103248;-67
2022/05/08 09:04:54;;;;;;;11.30;10.40;;;;;;;19.65;62.01;99313.59;5029926;27;103242;-68
2022/05/08 09:07:39;;;;;;;10.65;9.85;;;;;;;19.97;60.63;99309.50;5031171;27;102745;-67
2022/05/08 09:10:11;;;;;;;10.90;10.10;;;;;;;19.73;62.41;99312.84;5022316;27;103392;-69
2022/05/08 09:12:40;;;;;;;11.73;10.80;;;;;;;18.94;61.32;99318.00;5031061;27;103357;-67
2022/05/08 09:15:23;;;;;;;11.50;10.65;;;;;;;19.16;63.45;99305.16;5037869;27;106459;-67
2022/05/08 09:17:56;;;;;;;11.15;10.32;;;;;;;19.07;64.03;99314.94;5028273;27;102692;-67
2022/05/08 09:20:27;;;;;;;12.50;11.40;;;;;;;18.33;65.37;99314.13;5010863;27;104269;-71
2022/05/08 09:23:08;;;;;;;12.82;11.85;;;;;;;18.16;66.04;99312.19;5020688;27;103216;-71
2022/05/08 09:25:54;;;;;;;10.13;9.27;;;;;;;19.94;62.88;99307.13;5021303;27;103197;-71
2022/05/08 09:28:34;;;;;;;12.35;11.35;;;;;;;19.15;63.26;99308.84;5023338;27;102986;-71
2022/05/08 09:31:04;;;;;;;10.77;9.88;;;;;;;19.80;63.37;99305.00;5022478;27;104047;-71
2022/05/08 09:33:35;;;;;;;10.20;9.50;;;;;;;20.35;60.97;99300.28;5019949;27;103908;-71
2022/05/08 09:36:04;;;;;;;11.10;10.20;;;;;;;20.90;62.07;99288.13;5011118;27;104623;-71
2022/05/08 09:38:45;;;;;;;9.65;8.85;;;;;;;21.76;57.23;99292.22;5010502;27;104488;-71
2022/05/08 09:41:18;;;;;;;9.75;8.95;;;;;;;21.92;58.62;99288.72;5026588;27;102690;-71
2022/05/08 09:43:46;;;;;;;10.90;10.10;;;;;;;20.20;60.17;99298.13;5030210;27;103268;-71
2022/05/08 09:46:14;;;;;;;10.05;9.35;;;;;;;21.50;59.02;99290.69;5022786;27;104378;-71
2022/05/08 09:48:44;;;;;;;11.35;10.45;;;;;;;20.17;61.25;99298.44;5028674;27;102608;-71
2022/05/08 09:51:15;;;;;;;9.98;9.15;;;;;;;20.71;60.58;99305.34;5031292;27;103863;-71
2022/05/08 09:53:46;;;;;;;11.10;10.30;;;;;;;20.30;61.05;99291.81;5029388;27;103431;-72
2022/05/08 09:56:15;;;;;;;11.13;10.23;;;;;;;19.89;62.33;99294.19;5026636;27;103144;-71
2022/05/08 09:58:43;;;;;;;11.10;10.20;;;;;;;20.55;58.61;99291.81;5024578;27;102995;-72
2022/05/08 10:01:14;;;;;;;10.13;9.32;;;;;;;21.62;56.98;99286.63;5027021;27;103636;-71
2022/05/08 10:03:44;;;;;;;9.25;8.50;;;;;;;22.11;56.53;99274.06;5024772;27;103748;-72
2022/05/08 10:06:13;;;;;;;10.73;9.93;;;;;;;21.13;57.62;99286.56;5026409;27;104043;-71
2022/05/08 10:08:45;;;;;;;11.18;10.18;;;;;;;22.05;58.54;99278.28;5031250;27;102851;-72
2022/05/08 10:14:07;;;;;;;10.82;9.93;;;;;;;21.47;56.77;99277.56;5028703;27;104078;-72
2022/05/08 10:16:49;;;;;;;10.27;9.43;;;;;;;21.67;56.17;99270.88;5026055;27;103175;-70
2022/05/08 10:19:53;;;;;;;10.98;10.07;;;;;;;20.44;60.59;99278.66;5021947;27;103791;-71
2022/05/08 10:22:22;;;;;;;10.48;9.63;;;;;;;20.75;58.15;99281.69;5025538;27;103125;-71
2022/05/08 10:25:13;;;;;;;10.10;9.30;;;;;;;21.67;55.81;99273.56;5029774;27;103439;-70
2022/05/08 10:28:05;;;;;;;8.82;8.18;;;;;;;22.41;54.53;99273.34;5021896;27;103283;-70
2022/05/08 10:30:34;;;;;;;8.82;8.23;;;;;;;22.84;53.43;99266.66;5025574;27;102642;-70
2022/05/08 10:33:02;;;;;;;8.93;8.02;;;;;;;22.59;56.11;99265.06;5029737;27;104292;-71
2022/05/08 10:35:31;;;;;;;8.05;7.28;;;;;;;22.66;54.89;99266.91;5028982;27;104095;-71
2022/05/08 10:38:21;;;;;;;8.82;7.93;;;;;;;21.28;57.54;99267.94;5021655;27;103130;-71
2022/05/08 10:40:51;;;;;;;9.43;8.43;;;;;;;21.28;55.73;99274.16;5023477;27;102612;-70
2022/05/08 10:43:28;;;;;;;8.30;7.50;;;;;;;22.81;54.84;99264.31;5023964;27;104069;-72
2022/05/08 10:46:17;;;;;;;10.57;9.57;;;;;;;22.30;51.64;99261.09;5023329;27;103313;-71
2022/05/08 10:48:45;;;;;;;12.20;11.07;;;;;;;21.93;52.95;99260.78;5029827;27;103184;-70
2022/05/08 10:51:13;;;;;;;6.88;6.28;;;;;;;22.06;53.57;99263.84;5031975;27;102725;-70
2022/05/08 10:53:47;;;;;;;6.35;5.60;;;;;;;21.43;49.43;99250.16;5030927;27;103469;-71
2022/05/08 10:56:16;;;;;;;6.00;5.40;;;;;;;22.14;51.34;99260.28;5016769;27;103827;-70
2022/05/08 10:58:53;;;;;;;5.68;4.80;;;;;;;22.35;48.57;99258.72;5029750;27;103383;-70
2022/05/08 11:01:23;;;;;;;4.80;4.40;;;;;;;22.46;47.71;99255.66;5027902;27;102678;-71
2022/05/08 11:03:51;;;;;;;4.40;4.00;;;;;;;22.87;47.50;99256.38;5031698;27;104170;-73
2022/05/08 11:06:21;;;;;;;4.28;3.88;;;;;;;23.15;45.81;99251.34;5026708;27;104000;-72
2022/05/08 11:08:50;;;;;;;5.13;4.63;;;;;;;21.57;49.07;99256.72;5029437;27;103514;-73
2022/05/08 11:11:24;;;;;;;4.60;3.90;;;;;;;22.82;47.80;99260.63;5034983;27;104192;-72
2022/05/08 11:13:52;;;;;;;4.90;4.50;;;;;;;22.65;46.28;99256.31;5033790;27;102822;-72
2022/05/08 11:16:37;;;;;;;5.85;4.97;;;;;;;21.15;48.44;99257.69;5029732;27;104257;-71
2022/05/08 11:19:07;;;;;;;5.70;5.10;;;;;;;20.91;48.84;99259.44;5035035;27;103094;-70
2022/05/08 11:21:35;;;;;;;5.25;4.70;;;;;;;21.84;50.28;99257.25;5037152;27;103381;-70
2022/05/08 11:24:04;;;;;;;5.43;5.03;;;;;;;21.28;49.09;99260.72;5033231;27;102730;-70
2022/05/08 11:26:35;;;;;;;5.07;4.68;;;;;;;22.71;47.62;99258.31;5031617;27;103996;-70
2022/05/08 11:29:04;;;;;;;5.30;4.80;;;;;;;22.19;47.64;99256.06;5027249;27;103316;-70
2022/05/08 11:31:35;;;;;;;5.00;4.50;;;;;;;23.38;45.52;99257.63;5035306;27;102923;-70
2022/05/08 11:36:49;;;;;;;5.17;4.70;;;;;;;22.61;46.82;99268.41;5023769;27;104203;-71
2022/05/08 11:39:18;;;;;;;4.32;3.92;;;;;;;23.21;46.92;99257.91;5025509;27;103196;-72
2022/05/08 11:41:50;;;;;;;7.05;4.60;;;;;;;23.08;47.81;99250.38;5031256;27;102705;-71
2022/05/08 11:44:24;;;;;;;6.75;5.10;;;;;;;23.84;45.72;99257.63;5028202;27;103813;-71
2022/05/08 11:46:55;;;;;;;5.53;5.00;;;;;;;23.87;44.25;99255.41;5026287;27;104128;-71
2022/05/08 11:49:25;;;;;;;5.97;4.63;;;;;;;24.40;44.29;99264.34;5023408;27;103182;-71
2022/05/08 11:51:54;;;;;;;5.60;5.10;;;;;;;22.60;45.74;99255.97;5024395;27;102934;-72